Accueil
METAR-TAF:

METAR-TAF

Aéroports :

Aéroport de Saint-Sébastien

Saint-Sébastien, Espagne

latitude: 43-21N, longitude: 001-48W, altitude: 5 m

Observation

Le bulletin a été fait il y a 33 minutes, à 22:30 UTC
Vent 3 kt de sud
Température 17°C
Humidité 82%
Pression 1025 hPa
Visibilité 10 km ou plus
Quelques nuages à une hauteur de 4200 ft
Nuages épars à une hauteur de 5000 ft

METAR: LESO 172230Z AUTO 17003KT 9999 FEW042 SCT050 17/14 Q1025

Heure: 01:03 (23:03 UTC)

Prévision

Le bulletin a été fait il y a 6 heures et 3 minutes, à 17:00 UTC
Prévision valable du 17 à 18 UTC au 18 à 18 UTC
Vent 5 kt de nord
Visibilité 10 km ou plus
Nuages épars à une hauteur de 3000 ft
Nuages fragmentés à une hauteur de 5000 ft

TAF: LESO 171700Z 1718/1818 35005KT 9999 SCT030 BKN050 TX25/1815Z TN17/1805Z

Observations et prévisions météorologiques de plus de 4000 aéroports (messages METAR et TAF).

Les stations disponibles sont représentées par des disques jaunes et rouges sur la carte.

Passer la souris dessus pour voir le nom de la station.

Cliquer dessus pour voir les observations et prévisions météorologiques.

Pour changer de carte: cliquez sur les boutons verts avec une croix noire pour zoomer, sur le bouton vert avec un tiret pour effectuer un zoom arrière, ou sur les flèches vertes pour les cartes adjacentes.


METAR-TAF: